CID - The Eastern Iowa

Pirep is a free, collaborative database of all public and private airports located within the United States. All pilots are welcome to contribute, edit, and improve any airport they have local knowledge about, no registration required.
Uploaded photos will be licensed under a CC BY-SA 4.0 license. Please only upload photos you have the rights to use.
Tags
Public
METAR / TAF
Flying Clubs
Edit Tags
Food
Camping
Lodging
Car Rental
Bicycles
Swimming
Golfing
Fishing
Hot Springs
Museum
Airpark
Upcoming Events
No upcoming events. Is anything happening here soon?
*
*
*

Where exactly on/near the airport is this event taking place?

Is there a webpage with more information for this event?

Who should be contacted for more information?

What is this event all about?

Repeat every
Description
Transient Parking
Fuel Location
Landing & Tie-down Fees
Crew Car Availability
Flying Clubs
Last updated: 2024-02-01 20:43:35 CST
WiFi Access
Airport Statistics
Location: Cedar Rapids, IA
Elevation: 869ft
Sectional: Chicago
Activation date: Dec 1944
Fuel: 100LL, A (prices)
Runway 09/27: 8,600ft
Runway 13/31: 6,200ft
Access: Open to the public
Current Weather — IFR
  • Weather data is strictly informational and not for flight planning purposes.
  • METAR
    2024-05-26 07:04:00 CDT
    Ceiling Wind Temperature Dewpoint Weather Visbility
    900ft 100° @ 9kt 57°F 57°F Light rain, mist 6SM
    Clouds: Broken @ 900ft, Overcast @ 1,400ft
    Raw: KCID 261204Z 10009KT 6SM -RA BR BKN009 OVC014 14/14 A2958 RMK AO2 CIG 005V011 P0001 T01440144
  • TAF
    2024-05-26 07:00:00 CDT – 2024-05-26 08:00:00 CDT
    Ceiling Wind Weather Visbility
    2,500ft 110° @ 12kt, gusts 22kt Light rain showers, mist 5SM
    Clouds: Broken @ 2,500ft, Overcast @ 3,500ft
    Raw: KCID 261136Z 2612/2712 11012G22KT 5SM -SHRA BR BKN025 OVC035 FM261300 11011KT P6SM OVC025 FM261700 18008KT P6SM SCT015 BKN025 PROB30 2617/2619 5SM -SHRA BR FM262000 30008KT P6SM BKN040
  • TAF
    2024-05-26 08:00:00 CDT – 2024-05-26 12:00:00 CDT
    Ceiling Wind Weather Visbility
    2,500ft 110° @ 11kt N/A 6SM
    Clouds: Overcast @ 2,500ft
    Raw: KCID 261136Z 2612/2712 11012G22KT 5SM -SHRA BR BKN025 OVC035 FM261300 11011KT P6SM OVC025 FM261700 18008KT P6SM SCT015 BKN025 PROB30 2617/2619 5SM -SHRA BR FM262000 30008KT P6SM BKN040
  • TAF
    2024-05-26 12:00:00 CDT – 2024-05-26 15:00:00 CDT
    Ceiling Wind Weather Visbility
    2,500ft 180° @ 8kt N/A 6SM
    Clouds: Scattered @ 1,500ft, Broken @ 2,500ft
    Raw: KCID 261136Z 2612/2712 11012G22KT 5SM -SHRA BR BKN025 OVC035 FM261300 11011KT P6SM OVC025 FM261700 18008KT P6SM SCT015 BKN025 PROB30 2617/2619 5SM -SHRA BR FM262000 30008KT P6SM BKN040
  • TAF
    2024-05-26 12:00:00 CDT – 2024-05-26 14:00:00 CDT
    Ceiling Wind Weather Visbility
    Sky clear ° @ kt Light rain showers, mist 5SM
    Raw: KCID 261136Z 2612/2712 11012G22KT 5SM -SHRA BR BKN025 OVC035 FM261300 11011KT P6SM OVC025 FM261700 18008KT P6SM SCT015 BKN025 PROB30 2617/2619 5SM -SHRA BR FM262000 30008KT P6SM BKN040
  • TAF
    2024-05-26 15:00:00 CDT – 2024-05-27 07:00:00 CDT
    Ceiling Wind Weather Visbility
    4,000ft 300° @ 8kt N/A 6SM
    Clouds: Broken @ 4,000ft
    Raw: KCID 261136Z 2612/2712 11012G22KT 5SM -SHRA BR BKN025 OVC035 FM261300 11011KT P6SM OVC025 FM261700 18008KT P6SM SCT015 BKN025 PROB30 2617/2619 5SM -SHRA BR FM262000 30008KT P6SM BKN040
Click/tap to add an annotation marker to the map
Airport Webcams
No webcams added yet.
Direct links to live image URLs will be displayed inline on this page. URLs to separate webpages will be linked to.
URL:
Direct links to live image URLs will be displayed inline on this page. URLs to separate webpages will be linked to.
URL:
Remarks
  • Index c level arff available upon request with 48 hrs notice 319-731-5722.
  • Birds on & invof arpt.
  • When atct clsd & during snow & ice events; all arr/ dep acft announce their intentions on ctaf 5 mins prior to using the rys. personnel & equipment performing snow & ice removal ops will monitor ctaf.
  • Twy d is non-movement southeast of arpt access road.
  • Ry 27 is calm wind ry.
Comments
Leave a comment What was your experience like at this airport?